Antioch, Tennessee
Current Conditions -  °F | °C
As of 12:53 PM on Thursday 23 Oct 2014 (Local Time) from KBNA Reporting Station
Broken Clouds Broken Clouds  
Wind Chill: 62°   Ceiling: 25000
Heat Index: 62°   Visibility: 10mi
Dew Point: 41°   Wind: 5mph
Humidity: 46%   Direction: 50°NE
Pressure: 30.17"   Gusts: NA
Location:  36.06°N, 86.67°W
Report Text: KBNA 231753Z 05004KT 10SM SCT200 BKN250 17/05 A3017 RMK AO2 SLP216 T01670050 10172 20044 58021
Loading
Personal Weather Stations






























Interactive Weather Map
Tropical Storm Tracking
New forecast layout! Learn more

10-Day Weather Forecast

Advertisements
Track Severe Weather on mobile